createdAt,value
2022-10-01T00:01:26.884Z,3.22
2022-10-01T00:03:53.957Z,3.65
2022-10-01T00:06:22.354Z,2.47
2022-10-01T00:08:52.274Z,3.35
2022-10-01T00:11:22.670Z,2.92
2022-10-01T00:13:50.750Z,2.22
2022-10-01T00:16:20.604Z,3.00
2022-10-01T00:18:49.090Z,3.92
2022-10-01T00:21:19.238Z,5.47
2022-10-01T00:23:46.323Z,3.88
2022-10-01T00:26:21.060Z,3.33
2022-10-01T00:28:53.082Z,3.38
2022-10-01T00:31:20.143Z,2.92
2022-10-01T00:33:47.708Z,4.00
2022-10-01T00:36:14.941Z,2.80
2022-10-01T00:38:42.314Z,3.80
2022-10-01T00:41:10.174Z,2.70
2022-10-01T00:43:42.524Z,2.20
2022-10-01T00:46:28.800Z,3.15
2022-10-01T00:49:24.970Z,2.90
2022-10-01T00:51:57.958Z,4.03
2022-10-01T00:54:43.486Z,5.65
2022-10-01T00:57:12.644Z,3.03
2022-10-01T00:59:39.835Z,3.45
2022-10-01T01:02:06.969Z,1.95
2022-10-01T01:04:34.122Z,2.78
2022-10-01T01:07:04.533Z,3.00
2022-10-01T01:09:39.780Z,2.65
2022-10-01T01:12:21.782Z,2.47
2022-10-01T01:15:10.585Z,7.25
2022-10-01T01:18:02.772Z,4.15
2022-10-01T01:20:29.946Z,2.63
2022-10-01T01:23:15.009Z,2.55
2022-10-01T01:25:53.079Z,2.15
2022-10-01T01:28:24.367Z,3.08
2022-10-01T01:30:57.066Z,1.85
2022-10-01T01:36:07.116Z,2.65
2022-10-01T01:38:40.509Z,2.47
2022-10-01T01:41:10.719Z,2.03
2022-10-01T01:43:43.099Z,4.30
2022-10-01T01:46:13.455Z,2.65
2022-10-01T01:48:43.306Z,2.88
2022-10-01T01:51:29.351Z,4.90
2022-10-01T01:53:56.599Z,2.80
2022-10-01T01:56:24.033Z,2.17
2022-10-01T01:58:54.030Z,2.83
2022-10-01T02:01:41.351Z,1.98
2022-10-01T02:04:33.281Z,2.65
2022-10-01T02:07:18.934Z,2.63
2022-10-01T02:10:18.986Z,2.90
2022-10-01T02:13:03.974Z,2.22
2022-10-01T02:16:04.476Z,2.00
2022-10-01T02:18:46.727Z,3.47
2022-10-01T02:21:19.727Z,4.20
2022-10-01T02:24:03.599Z,1.80
2022-10-01T02:26:32.685Z,3.25
2022-10-01T02:29:04.609Z,1.55
2022-10-01T02:31:33.316Z,3.42
2022-10-01T02:34:02.402Z,1.48
2022-10-01T02:36:33.155Z,1.02
2022-10-01T02:39:02.040Z,1.77
2022-10-01T02:41:36.067Z,1.67
2022-10-01T02:44:12.640Z,2.28
2022-10-01T02:46:46.102Z,1.55
2022-10-01T02:49:14.647Z,1.63
2022-10-01T02:51:54.458Z,1.42
2022-10-01T02:54:29.661Z,1.75
2022-10-01T02:57:18.756Z,1.30
2022-10-01T02:59:45.773Z,1.00
2022-10-01T03:02:13.055Z,2.97
2022-10-01T03:04:40.248Z,1.88
2022-10-01T03:07:07.509Z,1.45
2022-10-01T03:09:36.757Z,1.77
2022-10-01T03:12:03.910Z,2.15
2022-10-01T03:14:32.460Z,1.13
2022-10-01T03:16:59.631Z,0.60
2022-10-01T03:19:26.787Z,1.63
2022-10-01T03:21:53.986Z,1.70
2022-10-01T03:24:20.971Z,1.45
2022-10-01T03:26:47.977Z,2.10
2022-10-01T03:29:15.185Z,0.93
2022-10-01T03:31:42.361Z,0.57
2022-10-01T03:34:09.472Z,0.80
2022-10-01T03:36:36.572Z,0.63
2022-10-01T03:39:03.701Z,0.77
2022-10-01T03:41:32.261Z,0.47
2022-10-01T03:44:00.618Z,0.57
2022-10-01T03:46:27.893Z,0.35
2022-10-01T03:48:57.350Z,0.40
2022-10-01T03:51:24.461Z,0.40
2022-10-01T03:53:51.456Z,0.70
2022-10-01T03:56:18.809Z,0.32
2022-10-01T03:58:45.967Z,0.63
2022-10-01T04:01:13.089Z,0.60
2022-10-01T04:03:41.027Z,0.52
2022-10-01T04:06:08.077Z,0.40
2022-10-01T04:08:35.237Z,0.10
2022-10-01T04:11:02.309Z,0.70
2022-10-01T04:13:30.055Z,0.38
2022-10-01T04:15:57.232Z,0.75
2022-10-01T04:18:24.474Z,0.95
2022-10-01T04:20:53.627Z,0.65
2022-10-01T04:23:20.733Z,0.95
2022-10-01T04:25:47.756Z,0.40
2022-10-01T04:28:15.411Z,0.30
2022-10-01T04:30:45.079Z,0.73
2022-10-01T04:33:14.937Z,0.45
2022-10-01T04:35:43.522Z,2.35
2022-10-01T04:38:17.754Z,1.10
2022-10-01T04:40:44.922Z,0.55
2022-10-01T04:43:13.400Z,0.80
2022-10-01T04:45:40.513Z,0.52
2022-10-01T04:48:07.508Z,0.80
2022-10-01T04:50:34.670Z,0.32
2022-10-01T04:53:01.778Z,0.60
2022-10-01T04:55:30.006Z,0.70
2022-10-01T04:57:57.074Z,0.57
2022-10-01T05:00:25.960Z,1.65
2022-10-01T05:02:53.952Z,0.28
2022-10-01T05:05:24.314Z,0.60
2022-10-01T05:07:51.552Z,0.60
2022-10-01T05:10:25.778Z,0.47
2022-10-01T05:12:55.679Z,0.70
2022-10-01T05:15:22.995Z,0.75
2022-10-01T05:17:53.216Z,0.70
2022-10-01T05:20:22.748Z,0.80
2022-10-01T05:22:52.945Z,1.80
2022-10-01T05:25:20.702Z,1.00
2022-10-01T05:27:47.879Z,1.08
2022-10-01T05:30:24.276Z,1.10
2022-10-01T05:32:56.461Z,1.13
2022-10-01T05:35:23.889Z,0.82
2022-10-01T05:37:57.732Z,1.88
2022-10-01T05:40:27.465Z,2.10
2022-10-01T05:42:59.845Z,1.15
2022-10-01T05:45:32.424Z,1.40
2022-10-01T05:48:04.850Z,1.73
2022-10-01T05:50:35.131Z,1.45
2022-10-01T05:53:02.784Z,1.05
2022-10-01T05:55:34.849Z,1.60
2022-10-01T05:58:03.492Z,1.27
2022-10-01T06:00:32.043Z,0.80
2022-10-01T06:03:01.832Z,1.10
2022-10-01T06:05:30.845Z,0.80
2022-10-01T06:07:59.001Z,1.42
2022-10-01T06:10:28.273Z,1.63
2022-10-01T06:13:02.131Z,1.67
2022-10-01T06:15:30.021Z,1.90
2022-10-01T06:17:57.169Z,1.42
2022-10-01T06:20:24.215Z,2.22
2022-10-01T06:22:56.957Z,2.10
2022-10-01T06:25:25.198Z,2.67
2022-10-01T06:27:58.238Z,2.95
2022-10-01T06:30:27.614Z,2.42
2022-10-01T06:33:03.737Z,2.85
2022-10-01T06:35:35.339Z,1.50
2022-10-01T06:38:03.042Z,4.82
2022-10-01T06:40:34.141Z,3.88
2022-10-01T06:43:03.872Z,4.38
2022-10-01T06:45:32.038Z,3.38
2022-10-01T06:48:03.943Z,4.38
2022-10-01T06:50:34.744Z,5.72
2022-10-01T06:53:04.441Z,3.83
2022-10-01T06:55:33.447Z,3.75
2022-10-01T06:58:03.184Z,3.78
2022-10-01T07:00:32.809Z,3.85
2022-10-01T07:03:00.847Z,6.63
2022-10-01T07:05:30.837Z,4.28
2022-10-01T07:07:58.297Z,5.32
2022-10-01T07:10:35.766Z,5.93
2022-10-01T07:13:11.080Z,5.07
2022-10-01T07:15:38.387Z,4.47
2022-10-01T07:18:05.958Z,6.40
2022-10-01T07:20:36.057Z,5.70
2022-10-01T07:23:03.228Z,4.70
2022-10-01T07:25:30.509Z,4.68
2022-10-01T07:28:04.611Z,5.05
2022-10-01T07:30:32.834Z,5.47
2022-10-01T07:32:59.880Z,6.35
2022-10-01T07:35:29.924Z,6.70
2022-10-01T07:37:57.082Z,4.60
2022-10-01T07:40:24.170Z,6.72
2022-10-01T07:42:57.801Z,4.90
2022-10-01T07:45:25.799Z,6.07
2022-10-01T07:47:57.480Z,6.78
2022-10-01T07:50:25.817Z,8.38
2022-10-01T07:52:57.381Z,8.82
2022-10-01T07:55:27.122Z,7.72
2022-10-01T07:57:56.258Z,8.00
2022-10-01T08:00:30.049Z,7.85
2022-10-01T08:03:07.452Z,7.30
2022-10-01T08:05:37.318Z,9.02
2022-10-01T08:08:09.261Z,7.25
2022-10-01T08:10:39.913Z,7.63
2022-10-01T08:13:14.667Z,10.68
2022-10-01T08:15:48.411Z,8.50
2022-10-01T08:18:18.541Z,8.88
2022-10-01T08:20:45.792Z,7.82
2022-10-01T08:23:16.164Z,7.60
2022-10-01T08:25:48.001Z,8.25
2022-10-01T08:28:16.618Z,11.00
2022-10-01T08:30:43.852Z,7.63
2022-10-01T08:33:13.149Z,7.80
2022-10-01T08:35:43.705Z,6.68
2022-10-01T08:38:11.888Z,8.95
2022-10-01T08:40:50.847Z,9.45
2022-10-01T08:43:36.548Z,11.02
2022-10-01T08:46:13.930Z,9.73
2022-10-01T08:49:01.552Z,9.77
2022-10-01T08:51:51.672Z,6.80
2022-10-01T08:54:30.939Z,8.40
2022-10-01T08:57:01.640Z,8.00
2022-10-01T08:59:43.923Z,8.32
2022-10-01T09:02:26.162Z,7.95
2022-10-01T09:05:01.550Z,7.53
2022-10-01T09:07:57.104Z,8.52
2022-10-01T09:10:33.110Z,7.22
2022-10-01T09:13:24.611Z,9.65
2022-10-01T09:16:13.658Z,8.82
2022-10-01T09:18:55.978Z,9.75
2022-10-01T09:21:32.912Z,7.13
2022-10-01T09:24:25.163Z,6.82
2022-10-01T09:26:52.247Z,9.02
2022-10-01T09:29:32.478Z,7.78
2022-10-01T09:32:02.273Z,9.13
2022-10-01T09:34:41.294Z,6.05
2022-10-01T09:37:29.103Z,6.85
2022-10-01T09:40:15.967Z,6.18
2022-10-01T09:42:43.819Z,8.15
2022-10-01T09:45:22.581Z,5.32
2022-10-01T09:47:53.621Z,6.13
2022-10-01T09:50:43.488Z,4.43
2022-10-01T09:53:18.247Z,5.63
2022-10-01T09:55:53.031Z,3.30
2022-10-01T09:58:23.875Z,3.80
2022-10-01T10:00:52.647Z,3.00
2022-10-01T10:03:23.936Z,3.22
2022-10-01T10:05:55.144Z,6.63
2022-10-01T10:08:34.783Z,3.65
2022-10-01T10:11:03.078Z,4.97
2022-10-01T10:13:39.353Z,2.63
2022-10-01T10:16:18.863Z,5.68
2022-10-01T10:18:52.238Z,3.28
2022-10-01T10:21:25.026Z,3.63
2022-10-01T10:23:59.265Z,1.85
2022-10-01T10:26:43.521Z,4.65
2022-10-01T10:29:32.285Z,3.60
2022-10-01T10:32:04.455Z,6.03
2022-10-01T10:34:40.861Z,4.47
2022-10-01T10:37:16.119Z,4.50
2022-10-01T10:39:48.072Z,5.90
2022-10-01T10:42:16.090Z,4.93
2022-10-01T10:44:46.993Z,4.20
2022-10-01T10:47:21.631Z,5.00
2022-10-01T10:49:56.547Z,5.50
2022-10-01T10:52:35.734Z,6.15
2022-10-01T10:55:23.221Z,6.85
2022-10-01T10:57:54.392Z,4.65
2022-10-01T11:00:25.587Z,5.25
2022-10-01T11:03:00.545Z,6.88
2022-10-01T11:05:32.144Z,5.38
2022-10-01T11:08:04.432Z,6.00
2022-10-01T11:11:05.957Z,2.55
2022-10-01T11:13:59.693Z,5.05
2022-10-01T11:16:32.671Z,8.48
2022-10-01T11:19:34.303Z,8.02
2022-10-01T11:22:13.655Z,3.13
2022-10-01T11:25:21.020Z,6.57
2022-10-01T11:28:09.414Z,5.63
2022-10-01T11:30:42.075Z,6.85
2022-10-01T11:33:45.152Z,7.43
2022-10-01T11:39:21.142Z,9.88
2022-10-01T11:42:20.071Z,6.60
2022-10-01T11:45:00.694Z,10.10
2022-10-01T11:47:43.841Z,6.15
2022-10-01T11:50:18.942Z,4.25
2022-10-01T11:53:11.232Z,3.22
2022-10-01T11:56:47.606Z,5.63
2022-10-01T11:59:37.464Z,6.38
2022-10-01T12:02:25.341Z,8.20
2022-10-01T12:05:04.159Z,5.07
2022-10-01T12:07:47.904Z,5.10
2022-10-01T12:10:31.581Z,5.78
2022-10-01T12:13:00.894Z,8.88
2022-10-01T12:15:53.885Z,7.40
2022-10-01T12:18:45.757Z,5.78
2022-10-01T12:21:39.940Z,6.77
2022-10-01T12:24:19.184Z,4.45
2022-10-01T12:27:18.778Z,6.88
2022-10-01T12:30:25.002Z,9.75
2022-10-01T12:33:30.651Z,8.85
2022-10-01T12:36:16.318Z,6.03
2022-10-01T12:38:59.975Z,2.65
2022-10-01T12:41:46.269Z,2.85
2022-10-01T12:44:50.145Z,5.65
2022-10-01T12:47:38.526Z,4.60
2022-10-01T12:50:22.153Z,1.95
2022-10-01T12:53:11.267Z,5.95
2022-10-01T12:55:52.448Z,7.65
2022-10-01T12:58:34.715Z,3.75
2022-10-01T13:01:36.369Z,4.55
2022-10-01T13:04:45.750Z,5.57
2022-10-01T13:07:37.489Z,8.43
2022-10-01T13:10:32.235Z,4.55
2022-10-01T13:13:23.087Z,7.50
2022-10-01T13:15:58.854Z,9.57
2022-10-01T13:18:49.543Z,5.97
2022-10-01T13:21:44.865Z,3.78
2022-10-01T13:24:36.454Z,4.15
2022-10-01T13:27:07.917Z,5.95
2022-10-01T13:30:02.709Z,4.40
2022-10-01T13:33:01.293Z,5.65
2022-10-01T13:35:39.562Z,4.07
2022-10-01T13:38:29.254Z,7.88
2022-10-01T13:41:16.228Z,6.45
2022-10-01T13:43:52.056Z,6.30
2022-10-01T13:46:23.798Z,4.03
2022-10-01T13:48:51.935Z,6.50
2022-10-01T13:51:20.452Z,8.35
2022-10-01T13:53:56.193Z,8.77
2022-10-01T13:56:29.121Z,8.02
2022-10-01T13:58:56.664Z,4.28
2022-10-01T14:01:24.663Z,8.38
2022-10-01T14:04:23.770Z,8.15
2022-10-01T14:06:58.254Z,6.05
2022-10-01T14:09:53.242Z,7.80
2022-10-01T14:12:57.431Z,4.95
2022-10-01T14:16:07.963Z,15.85
2022-10-01T14:18:39.994Z,5.47
2022-10-01T14:21:33.253Z,5.97
2022-10-01T14:24:26.181Z,6.18
2022-10-01T14:27:28.546Z,5.85
2022-10-01T14:30:11.864Z,9.77
2022-10-01T14:33:06.369Z,7.85
2022-10-01T14:35:33.519Z,7.88
2022-10-01T14:38:12.271Z,21.92
2022-10-01T14:40:43.792Z,8.15
2022-10-01T14:43:21.138Z,5.40
2022-10-01T14:45:52.507Z,8.57
2022-10-01T14:48:19.712Z,5.68
2022-10-01T14:50:59.600Z,8.30
2022-10-01T14:53:30.234Z,6.50
2022-10-01T14:56:05.660Z,4.10
2022-10-01T14:58:54.464Z,6.40
2022-10-01T15:01:26.044Z,8.07
2022-10-01T15:03:54.879Z,8.65
2022-10-01T15:06:24.972Z,4.07
2022-10-01T15:09:02.666Z,5.38
2022-10-01T15:11:31.712Z,6.13
2022-10-01T15:14:05.294Z,16.55
2022-10-01T15:16:35.815Z,7.57
2022-10-01T15:19:07.751Z,5.18
2022-10-01T15:21:39.803Z,8.38
2022-10-01T15:24:15.909Z,7.85
2022-10-01T15:26:43.697Z,5.70
2022-10-01T15:29:16.639Z,5.18
2022-10-01T15:31:46.727Z,4.82
2022-10-01T15:34:19.353Z,7.40
2022-10-01T15:36:48.797Z,3.63
2022-10-01T15:39:27.787Z,5.50
2022-10-01T15:41:56.780Z,5.32
2022-10-01T15:44:46.616Z,2.97
2022-10-01T15:47:34.270Z,5.30
2022-10-01T15:50:06.630Z,7.63
2022-10-01T15:52:52.081Z,7.30
2022-10-01T15:55:21.904Z,9.15
2022-10-01T15:57:53.987Z,4.55
2022-10-01T16:00:29.964Z,4.07
2022-10-01T16:02:58.167Z,4.18
2022-10-01T16:05:31.639Z,9.07
2022-10-01T16:09:44.547Z,8.73
2022-10-01T16:11:17.813Z,6.82
2022-10-01T16:16:32.060Z,6.78
2022-10-01T16:19:20.207Z,7.15
2022-10-01T16:22:20.080Z,7.65
2022-10-01T16:24:48.768Z,7.70
2022-10-01T16:27:22.566Z,6.95
2022-10-01T16:30:05.374Z,6.03
2022-10-01T16:32:33.376Z,3.13
2022-10-01T16:35:19.168Z,7.05
2022-10-01T16:37:51.934Z,5.13
2022-10-01T16:40:25.367Z,5.18
2022-10-01T16:42:53.086Z,3.35
2022-10-01T16:45:25.943Z,6.05
2022-10-01T16:47:56.854Z,6.40
2022-10-01T16:50:25.320Z,6.87
2022-10-01T16:52:53.617Z,4.70
2022-10-01T16:55:26.383Z,5.40
2022-10-01T16:57:57.515Z,5.32
2022-10-01T17:00:26.807Z,6.18
2022-10-01T17:02:55.418Z,4.65
2022-10-01T17:05:26.098Z,4.82
2022-10-01T17:07:54.269Z,7.03
2022-10-01T17:10:23.522Z,4.20
2022-10-01T17:12:51.338Z,7.38
2022-10-01T17:15:27.063Z,6.38
2022-10-01T17:17:55.903Z,6.97
2022-10-01T17:20:24.637Z,3.40
2022-10-01T17:22:52.226Z,4.28
2022-10-01T17:25:21.589Z,4.50
2022-10-01T17:27:51.428Z,4.97
2022-10-01T17:30:21.393Z,5.22
2022-10-01T17:32:48.775Z,6.53
2022-10-01T17:35:16.426Z,8.90
2022-10-01T17:37:44.155Z,4.80
2022-10-01T17:40:14.884Z,5.97
2022-10-01T17:42:45.034Z,3.95
2022-10-01T17:45:14.311Z,3.20
2022-10-01T17:47:46.064Z,2.45
2022-10-01T17:50:15.389Z,6.20
2022-10-01T17:52:43.300Z,3.97
2022-10-01T17:55:12.356Z,6.10
2022-10-01T17:57:39.682Z,3.67
2022-10-01T18:00:10.583Z,4.13
2022-10-01T18:02:42.801Z,4.28
2022-10-01T18:05:12.819Z,5.20
2022-10-01T18:07:40.535Z,3.03
2022-10-01T18:10:10.888Z,3.22
2022-10-01T18:12:42.307Z,4.30
2022-10-01T18:15:15.132Z,1.80
2022-10-01T18:17:43.704Z,4.78
2022-10-01T18:20:20.499Z,4.32
2022-10-01T18:22:48.978Z,3.75
2022-10-01T18:25:16.836Z,4.00
2022-10-01T18:27:46.251Z,3.05
2022-10-01T18:30:20.082Z,2.65
2022-10-01T18:33:10.833Z,3.03
2022-10-01T18:35:43.956Z,3.90
2022-10-01T18:38:55.368Z,3.58
2022-10-01T18:41:37.278Z,1.17
2022-10-01T18:44:10.411Z,2.78
2022-10-01T18:46:58.548Z,3.60
2022-10-01T18:49:47.996Z,3.35
2022-10-01T18:52:47.069Z,4.57
2022-10-01T18:55:57.350Z,3.45
2022-10-01T18:58:51.654Z,2.08
2022-10-01T19:01:43.210Z,2.75
2022-10-01T19:04:19.576Z,4.30
2022-10-01T19:07:03.372Z,3.70
2022-10-01T19:10:03.968Z,5.97
2022-10-01T19:12:50.426Z,2.55
2022-10-01T19:15:39.702Z,5.18
2022-10-01T19:18:36.822Z,2.58
2022-10-01T19:21:13.332Z,2.88
2022-10-01T19:24:02.301Z,3.47
2022-10-01T19:26:37.781Z,4.38
2022-10-01T19:29:31.575Z,5.57
2022-10-01T19:32:03.090Z,2.75
2022-10-01T19:34:45.014Z,7.07
2022-10-01T19:37:40.717Z,3.90
2022-10-01T19:40:30.365Z,2.55
2022-10-01T19:43:26.190Z,4.50
2022-10-01T19:46:17.714Z,3.83
2022-10-01T19:48:45.923Z,4.72
2022-10-01T19:51:18.797Z,7.55
2022-10-01T19:53:56.960Z,3.83
2022-10-01T19:56:28.930Z,3.75
2022-10-01T19:59:00.810Z,2.60
2022-10-01T20:01:42.801Z,4.50
2022-10-01T20:04:34.439Z,2.42
2022-10-01T20:07:08.708Z,4.25
2022-10-01T20:09:46.123Z,5.10
2022-10-01T20:12:21.216Z,5.43
2022-10-01T20:15:06.848Z,4.65
2022-10-01T20:17:42.827Z,4.70
2022-10-01T20:20:13.518Z,2.08
2022-10-01T20:22:59.666Z,3.75
2022-10-01T20:25:29.534Z,2.05
2022-10-01T20:28:16.791Z,4.43
2022-10-01T20:31:28.519Z,1.90
2022-10-01T20:34:25.231Z,2.70
2022-10-01T20:37:12.539Z,3.92
2022-10-01T20:39:46.044Z,2.17
2022-10-01T20:42:34.182Z,1.75
2022-10-01T20:45:02.756Z,1.65
2022-10-01T20:47:40.522Z,1.83
2022-10-01T20:50:20.154Z,3.80
2022-10-01T20:53:22.362Z,4.05
2022-10-01T20:55:57.212Z,2.23
2022-10-01T20:58:33.689Z,7.93
2022-10-01T21:01:10.118Z,3.08
2022-10-01T21:03:42.748Z,4.88
2022-10-01T21:08:43.036Z,2.92
2022-10-01T21:11:22.456Z,4.93
2022-10-01T21:14:04.957Z,2.63
2022-10-01T21:16:36.077Z,3.55
2022-10-01T21:19:22.602Z,1.50
2022-10-01T21:22:01.613Z,1.95
2022-10-01T21:24:44.289Z,1.70
2022-10-01T21:27:26.348Z,3.63
2022-10-01T21:30:12.436Z,1.58
2022-10-01T21:32:42.134Z,2.10
2022-10-01T21:35:30.962Z,1.80
2022-10-01T21:38:39.215Z,2.72
2022-10-01T21:41:15.324Z,3.22
2022-10-01T21:44:10.123Z,2.50
2022-10-01T21:46:38.446Z,2.53
2022-10-01T21:49:27.026Z,3.83
2022-10-01T21:52:11.777Z,2.75
2022-10-01T21:54:42.081Z,4.70
2022-10-01T21:57:20.167Z,3.47
2022-10-01T21:59:50.090Z,3.28
2022-10-01T22:02:36.133Z,3.83
2022-10-01T22:05:23.400Z,3.38
2022-10-01T22:08:18.003Z,6.28
2022-10-01T22:10:48.860Z,4.40
2022-10-01T22:13:38.533Z,5.68
2022-10-01T22:16:19.504Z,1.63
2022-10-01T22:18:54.381Z,5.57
2022-10-01T22:21:35.454Z,6.03
2022-10-01T22:24:09.992Z,4.47
2022-10-01T22:26:42.698Z,5.80
2022-10-01T22:29:19.076Z,6.50
2022-10-01T22:31:49.940Z,2.50
2022-10-01T22:34:32.886Z,4.20
2022-10-01T22:39:41.968Z,2.63
2022-10-01T22:42:30.423Z,2.67
2022-10-01T22:45:14.677Z,4.22
2022-10-01T22:47:59.123Z,4.80
2022-10-01T22:50:46.017Z,3.75
2022-10-01T22:53:28.015Z,2.92
2022-10-01T22:55:57.899Z,3.20
2022-10-01T22:58:40.063Z,2.38
2022-10-01T23:01:33.272Z,2.90
2022-10-01T23:04:12.334Z,5.05
2022-10-01T23:06:48.883Z,6.32
2022-10-01T23:09:39.513Z,7.65
2022-10-01T23:12:23.550Z,5.07
2022-10-01T23:15:19.811Z,8.60
2022-10-01T23:17:52.259Z,7.82
2022-10-01T23:20:30.013Z,4.40
2022-10-01T23:23:34.344Z,6.68
2022-10-01T23:26:21.261Z,6.80
2022-10-01T23:29:41.685Z,12.38
2022-10-01T23:32:36.636Z,7.45
2022-10-01T23:35:34.900Z,13.98
2022-10-01T23:38:35.348Z,9.50
2022-10-01T23:41:16.859Z,14.75
2022-10-01T23:43:52.429Z,10.02
2022-10-01T23:46:27.519Z,15.23
2022-10-01T23:49:20.484Z,10.18
2022-10-01T23:54:42.191Z,10.20
2022-10-01T23:57:17.732Z,7.22
